sensor_id;sensor_type;location;lat;lon;timestamp;temperature;humidity
21031;DHT22;61072;47.808;7.636;2022-10-16T00:01:11;15.90;99.90
21031;DHT22;61072;47.808;7.636;2022-10-16T00:03:39;16.00;99.90
21031;DHT22;61072;47.808;7.636;2022-10-16T00:06:08;16.00;99.90
21031;DHT22;61072;47.808;7.636;2022-10-16T00:08:35;16.00;99.90
21031;DHT22;61072;47.808;7.636;2022-10-16T00:11:05;16.00;99.90
21031;DHT22;61072;47.808;7.636;2022-10-16T00:13:34;16.00;99.90
21031;DHT22;61072;47.808;7.636;2022-10-16T00:16:02;16.00;99.90
21031;DHT22;61072;47.808;7.636;2022-10-16T00:18:29;16.00;99.90
21031;DHT22;61072;47.808;7.636;2022-10-16T00:21:02;16.00;99.90
21031;DHT22;61072;47.808;7.636;2022-10-16T00:23:29;16.00;99.90
21031;DHT22;61072;47.808;7.636;2022-10-16T00:25:57;15.90;99.90
21031;DHT22;61072;47.808;7.636;2022-10-16T00:28:25;16.00;99.90
21031;DHT22;61072;47.808;7.636;2022-10-16T00:30:52;16.00;99.90
21031;DHT22;61072;47.808;7.636;2022-10-16T00:33:19;16.00;99.90
21031;DHT22;61072;47.808;7.636;2022-10-16T00:35:46;16.00;99.90
21031;DHT22;61072;47.808;7.636;2022-10-16T00:38:13;16.00;99.90
21031;DHT22;61072;47.808;7.636;2022-10-16T00:40:40;16.00;99.90
21031;DHT22;61072;47.808;7.636;2022-10-16T00:43:32;16.00;99.90
21031;DHT22;61072;47.808;7.636;2022-10-16T00:46:03;16.00;99.90
21031;DHT22;61072;47.808;7.636;2022-10-16T00:48:30;16.00;99.90
21031;DHT22;61072;47.808;7.636;2022-10-16T00:50:58;16.00;99.90
21031;DHT22;61072;47.808;7.636;2022-10-16T00:53:25;15.90;99.90
21031;DHT22;61072;47.808;7.636;2022-10-16T00:55:53;16.00;99.90
21031;DHT22;61072;47.808;7.636;2022-10-16T00:58:21;15.90;99.90
21031;DHT22;61072;47.808;7.636;2022-10-16T01:00:47;15.90;99.90
21031;DHT22;61072;47.808;7.636;2022-10-16T01:03:30;15.90;99.90
21031;DHT22;61072;47.808;7.636;2022-10-16T01:11:49;15.80;99.90
21031;DHT22;61072;47.808;7.636;2022-10-16T01:14:29;15.80;99.90
21031;DHT22;61072;47.808;7.636;2022-10-16T01:17:04;15.70;99.90
21031;DHT22;61072;47.808;7.636;2022-10-16T01:19:55;15.70;99.90
21031;DHT22;61072;47.808;7.636;2022-10-16T01:22:26;15.60;99.90
21031;DHT22;61072;47.808;7.636;2022-10-16T01:24:59;15.60;99.90
21031;DHT22;61072;47.808;7.636;2022-10-16T01:27:29;15.50;99.90
21031;DHT22;61072;47.808;7.636;2022-10-16T01:30:04;15.50;99.90
21031;DHT22;61072;47.808;7.636;2022-10-16T01:32:38;15.50;99.90
21031;DHT22;61072;47.808;7.636;2022-10-16T01:35:14;15.50;99.90
21031;DHT22;61072;47.808;7.636;2022-10-16T01:37:48;15.40;99.90
21031;DHT22;61072;47.808;7.636;2022-10-16T01:40:19;15.40;99.90
21031;DHT22;61072;47.808;7.636;2022-10-16T01:42:55;15.40;99.90
21031;DHT22;61072;47.808;7.636;2022-10-16T01:45:30;15.40;99.90
21031;DHT22;61072;47.808;7.636;2022-10-16T01:48:00;15.40;99.90
21031;DHT22;61072;47.808;7.636;2022-10-16T01:50:32;15.30;99.90
21031;DHT22;61072;47.808;7.636;2022-10-16T01:53:02;15.40;99.90
21031;DHT22;61072;47.808;7.636;2022-10-16T01:55:33;15.40;99.90
21031;DHT22;61072;47.808;7.636;2022-10-16T01:58:04;15.40;99.90
21031;DHT22;61072;47.808;7.636;2022-10-16T02:00:31;15.30;99.90
21031;DHT22;61072;47.808;7.636;2022-10-16T02:02:59;15.40;99.90
21031;DHT22;61072;47.808;7.636;2022-10-16T02:05:32;15.30;99.90
21031;DHT22;61072;47.808;7.636;2022-10-16T02:08:00;15.30;99.90
21031;DHT22;61072;47.808;7.636;2022-10-16T02:10:31;15.40;99.90
21031;DHT22;61072;47.808;7.636;2022-10-16T02:13:15;15.40;99.90
21031;DHT22;61072;47.808;7.636;2022-10-16T02:15:43;15.40;99.90
21031;DHT22;61072;47.808;7.636;2022-10-16T02:18:10;15.40;99.90
21031;DHT22;61072;47.808;7.636;2022-10-16T02:20:47;15.40;99.90
21031;DHT22;61072;47.808;7.636;2022-10-16T02:23:34;15.40;99.90
21031;DHT22;61072;47.808;7.636;2022-10-16T02:26:06;15.30;99.90
21031;DHT22;61072;47.808;7.636;2022-10-16T02:28:45;15.40;99.90
21031;DHT22;61072;47.808;7.636;2022-10-16T02:31:18;15.40;99.90
21031;DHT22;61072;47.808;7.636;2022-10-16T02:33:47;15.40;99.90
21031;DHT22;61072;47.808;7.636;2022-10-16T02:36:14;15.40;99.90
21031;DHT22;61072;47.808;7.636;2022-10-16T02:38:41;15.40;99.90
21031;DHT22;61072;47.808;7.636;2022-10-16T02:41:08;15.50;99.90
21031;DHT22;61072;47.808;7.636;2022-10-16T02:43:35;15.50;99.90
21031;DHT22;61072;47.808;7.636;2022-10-16T02:46:02;15.40;99.90
21031;DHT22;61072;47.808;7.636;2022-10-16T02:48:29;15.50;99.90
21031;DHT22;61072;47.808;7.636;2022-10-16T02:50:55;15.50;99.90
21031;DHT22;61072;47.808;7.636;2022-10-16T02:53:23;15.50;99.90
21031;DHT22;61072;47.808;7.636;2022-10-16T02:55:50;15.40;99.90
21031;DHT22;61072;47.808;7.636;2022-10-16T02:58:17;15.40;99.90
21031;DHT22;61072;47.808;7.636;2022-10-16T03:00:43;15.50;99.90
21031;DHT22;61072;47.808;7.636;2022-10-16T03:03:10;15.50;99.90
21031;DHT22;61072;47.808;7.636;2022-10-16T03:05:37;15.50;99.90
21031;DHT22;61072;47.808;7.636;2022-10-16T03:08:03;15.50;99.90
21031;DHT22;61072;47.808;7.636;2022-10-16T03:10:30;15.50;99.90
21031;DHT22;61072;47.808;7.636;2022-10-16T03:12:57;15.50;99.90
21031;DHT22;61072;47.808;7.636;2022-10-16T03:15:24;15.50;99.90
21031;DHT22;61072;47.808;7.636;2022-10-16T03:17:50;15.60;99.90
21031;DHT22;61072;47.808;7.636;2022-10-16T03:20:17;15.50;99.90
21031;DHT22;61072;47.808;7.636;2022-10-16T03:22:44;15.60;99.90
21031;DHT22;61072;47.808;7.636;2022-10-16T03:25:10;15.50;99.90
21031;DHT22;61072;47.808;7.636;2022-10-16T03:27:37;15.50;99.90
21031;DHT22;61072;47.808;7.636;2022-10-16T03:30:04;15.40;99.90
21031;DHT22;61072;47.808;7.636;2022-10-16T03:32:31;15.40;99.90
21031;DHT22;61072;47.808;7.636;2022-10-16T03:34:58;15.40;99.90
21031;DHT22;61072;47.808;7.636;2022-10-16T03:37:25;15.40;99.90
21031;DHT22;61072;47.808;7.636;2022-10-16T03:39:52;15.40;99.90
21031;DHT22;61072;47.808;7.636;2022-10-16T03:42:19;15.40;99.90
21031;DHT22;61072;47.808;7.636;2022-10-16T03:44:45;15.50;99.90
21031;DHT22;61072;47.808;7.636;2022-10-16T03:47:12;15.40;99.90
21031;DHT22;61072;47.808;7.636;2022-10-16T03:49:39;15.40;99.90
21031;DHT22;61072;47.808;7.636;2022-10-16T03:52:06;15.40;99.90
21031;DHT22;61072;47.808;7.636;2022-10-16T03:54:32;15.40;99.90
21031;DHT22;61072;47.808;7.636;2022-10-16T03:56:59;15.40;99.90
21031;DHT22;61072;47.808;7.636;2022-10-16T03:59:26;15.40;99.90
21031;DHT22;61072;47.808;7.636;2022-10-16T04:01:52;15.50;99.90
21031;DHT22;61072;47.808;7.636;2022-10-16T04:04:19;15.50;99.90
21031;DHT22;61072;47.808;7.636;2022-10-16T04:06:46;15.50;99.90
21031;DHT22;61072;47.808;7.636;2022-10-16T04:09:12;15.60;99.90
21031;DHT22;61072;47.808;7.636;2022-10-16T04:11:39;15.50;99.90
21031;DHT22;61072;47.808;7.636;2022-10-16T04:14:06;15.50;99.90
21031;DHT22;61072;47.808;7.636;2022-10-16T04:16:32;15.60;99.90
21031;DHT22;61072;47.808;7.636;2022-10-16T04:18:59;15.50;99.90
21031;DHT22;61072;47.808;7.636;2022-10-16T04:21:26;15.60;99.90
21031;DHT22;61072;47.808;7.636;2022-10-16T04:23:52;15.60;99.90
21031;DHT22;61072;47.808;7.636;2022-10-16T04:26:19;15.60;99.90
21031;DHT22;61072;47.808;7.636;2022-10-16T04:28:46;15.60;99.90
21031;DHT22;61072;47.808;7.636;2022-10-16T04:31:13;15.60;99.90
21031;DHT22;61072;47.808;7.636;2022-10-16T04:33:42;15.60;99.90
21031;DHT22;61072;47.808;7.636;2022-10-16T04:36:09;15.60;99.90
21031;DHT22;61072;47.808;7.636;2022-10-16T04:38:36;15.60;99.90
21031;DHT22;61072;47.808;7.636;2022-10-16T04:41:04;15.60;99.90
21031;DHT22;61072;47.808;7.636;2022-10-16T04:43:31;15.70;99.90
21031;DHT22;61072;47.808;7.636;2022-10-16T04:45:57;15.60;99.90
21031;DHT22;61072;47.808;7.636;2022-10-16T04:48:24;15.60;99.90
21031;DHT22;61072;47.808;7.636;2022-10-16T04:50:51;15.60;99.90
21031;DHT22;61072;47.808;7.636;2022-10-16T04:53:20;15.60;99.90
21031;DHT22;61072;47.808;7.636;2022-10-16T04:55:47;15.60;99.90
21031;DHT22;61072;47.808;7.636;2022-10-16T04:58:14;15.60;99.90
21031;DHT22;61072;47.808;7.636;2022-10-16T05:00:40;15.50;99.90
21031;DHT22;61072;47.808;7.636;2022-10-16T05:03:07;15.60;99.90
21031;DHT22;61072;47.808;7.636;2022-10-16T05:05:36;15.60;99.90
21031;DHT22;61072;47.808;7.636;2022-10-16T05:08:03;15.60;99.90
21031;DHT22;61072;47.808;7.636;2022-10-16T05:10:30;15.60;99.90
21031;DHT22;61072;47.808;7.636;2022-10-16T05:12:57;15.60;99.90
21031;DHT22;61072;47.808;7.636;2022-10-16T05:15:23;15.60;99.90
21031;DHT22;61072;47.808;7.636;2022-10-16T05:17:55;15.50;99.90
21031;DHT22;61072;47.808;7.636;2022-10-16T05:20:22;15.50;99.90
21031;DHT22;61072;47.808;7.636;2022-10-16T05:22:49;15.60;99.90
21031;DHT22;61072;47.808;7.636;2022-10-16T05:25:16;15.50;99.90
21031;DHT22;61072;47.808;7.636;2022-10-16T05:27:43;15.50;99.90
21031;DHT22;61072;47.808;7.636;2022-10-16T05:30:13;15.50;99.90
21031;DHT22;61072;47.808;7.636;2022-10-16T05:32:39;15.40;99.90
21031;DHT22;61072;47.808;7.636;2022-10-16T05:35:06;15.40;99.90
21031;DHT22;61072;47.808;7.636;2022-10-16T05:37:38;15.40;99.90
21031;DHT22;61072;47.808;7.636;2022-10-16T05:40:05;15.40;99.90
21031;DHT22;61072;47.808;7.636;2022-10-16T05:42:32;15.30;99.90
21031;DHT22;61072;47.808;7.636;2022-10-16T05:44:58;15.30;99.90
21031;DHT22;61072;47.808;7.636;2022-10-16T05:47:25;15.30;99.90
21031;DHT22;61072;47.808;7.636;2022-10-16T05:49:52;15.30;99.90
21031;DHT22;61072;47.808;7.636;2022-10-16T05:52:19;15.30;99.90
21031;DHT22;61072;47.808;7.636;2022-10-16T05:54:46;15.20;99.90
21031;DHT22;61072;47.808;7.636;2022-10-16T05:57:13;15.30;99.90
21031;DHT22;61072;47.808;7.636;2022-10-16T05:59:39;15.30;99.90
21031;DHT22;61072;47.808;7.636;2022-10-16T06:02:08;15.30;99.90
21031;DHT22;61072;47.808;7.636;2022-10-16T06:04:35;15.30;99.90
21031;DHT22;61072;47.808;7.636;2022-10-16T06:07:02;15.30;99.90
21031;DHT22;61072;47.808;7.636;2022-10-16T06:09:28;15.30;99.90
21031;DHT22;61072;47.808;7.636;2022-10-16T06:11:55;15.30;99.90
21031;DHT22;61072;47.808;7.636;2022-10-16T06:14:22;15.30;99.90
21031;DHT22;61072;47.808;7.636;2022-10-16T06:16:48;15.40;99.90
21031;DHT22;61072;47.808;7.636;2022-10-16T06:19:15;15.40;99.90
21031;DHT22;61072;47.808;7.636;2022-10-16T06:21:42;15.40;99.90
21031;DHT22;61072;47.808;7.636;2022-10-16T06:24:09;15.40;99.90
21031;DHT22;61072;47.808;7.636;2022-10-16T06:26:37;15.40;99.90
21031;DHT22;61072;47.808;7.636;2022-10-16T06:29:04;15.40;99.90
21031;DHT22;61072;47.808;7.636;2022-10-16T06:31:31;15.40;99.90
21031;DHT22;61072;47.808;7.636;2022-10-16T06:34:00;15.50;99.90
21031;DHT22;61072;47.808;7.636;2022-10-16T06:36:27;15.50;99.90
21031;DHT22;61072;47.808;7.636;2022-10-16T06:38:54;15.50;99.90
21031;DHT22;61072;47.808;7.636;2022-10-16T06:41:22;15.50;99.90
21031;DHT22;61072;47.808;7.636;2022-10-16T06:43:49;15.60;99.90
21031;DHT22;61072;47.808;7.636;2022-10-16T06:46:19;15.60;99.90
21031;DHT22;61072;47.808;7.636;2022-10-16T06:48:46;15.60;99.90
21031;DHT22;61072;47.808;7.636;2022-10-16T06:51:17;15.60;99.90
21031;DHT22;61072;47.808;7.636;2022-10-16T06:53:49;15.60;99.90
21031;DHT22;61072;47.808;7.636;2022-10-16T06:56:33;15.60;99.90
21031;DHT22;61072;47.808;7.636;2022-10-16T06:59:00;15.60;99.90
21031;DHT22;61072;47.808;7.636;2022-10-16T07:01:28;15.60;99.90
21031;DHT22;61072;47.808;7.636;2022-10-16T07:03:55;15.60;99.90
21031;DHT22;61072;47.808;7.636;2022-10-16T07:06:23;15.60;99.90
21031;DHT22;61072;47.808;7.636;2022-10-16T07:08:50;15.60;99.90
21031;DHT22;61072;47.808;7.636;2022-10-16T07:11:19;15.70;99.90
21031;DHT22;61072;47.808;7.636;2022-10-16T07:13:47;15.70;99.90
21031;DHT22;61072;47.808;7.636;2022-10-16T07:16:23;15.70;99.90
21031;DHT22;61072;47.808;7.636;2022-10-16T07:18:50;15.70;99.90
21031;DHT22;61072;47.808;7.636;2022-10-16T07:21:21;15.80;99.90
21031;DHT22;61072;47.808;7.636;2022-10-16T07:23:57;15.80;99.90
21031;DHT22;61072;47.808;7.636;2022-10-16T07:26:25;15.90;99.90
21031;DHT22;61072;47.808;7.636;2022-10-16T07:28:52;15.90;99.90
21031;DHT22;61072;47.808;7.636;2022-10-16T07:31:20;15.90;99.90
21031;DHT22;61072;47.808;7.636;2022-10-16T07:33:47;16.00;99.90
21031;DHT22;61072;47.808;7.636;2022-10-16T07:36:18;16.10;99.90
21031;DHT22;61072;47.808;7.636;2022-10-16T07:38:46;16.10;99.90
21031;DHT22;61072;47.808;7.636;2022-10-16T07:41:16;16.20;99.90
21031;DHT22;61072;47.808;7.636;2022-10-16T07:43:50;16.30;99.90
21031;DHT22;61072;47.808;7.636;2022-10-16T07:46:19;16.30;99.90
21031;DHT22;61072;47.808;7.636;2022-10-16T07:48:46;16.40;99.90
21031;DHT22;61072;47.808;7.636;2022-10-16T07:51:17;16.40;99.90
21031;DHT22;61072;47.808;7.636;2022-10-16T07:53:44;16.60;99.90
21031;DHT22;61072;47.808;7.636;2022-10-16T07:56:11;16.60;99.90
21031;DHT22;61072;47.808;7.636;2022-10-16T07:58:38;16.70;99.90
21031;DHT22;61072;47.808;7.636;2022-10-16T08:01:07;16.80;99.90
21031;DHT22;61072;47.808;7.636;2022-10-16T08:03:34;16.80;99.90
21031;DHT22;61072;47.808;7.636;2022-10-16T08:06:02;16.90;99.90
21031;DHT22;61072;47.808;7.636;2022-10-16T08:08:29;17.00;99.90
21031;DHT22;61072;47.808;7.636;2022-10-16T08:10:56;17.10;99.90
21031;DHT22;61072;47.808;7.636;2022-10-16T08:13:23;17.10;99.90
21031;DHT22;61072;47.808;7.636;2022-10-16T08:15:50;17.20;99.90
21031;DHT22;61072;47.808;7.636;2022-10-16T08:18:17;17.30;99.90
21031;DHT22;61072;47.808;7.636;2022-10-16T08:20:43;17.30;99.90
21031;DHT22;61072;47.808;7.636;2022-10-16T08:23:13;17.50;99.90
21031;DHT22;61072;47.808;7.636;2022-10-16T08:25:40;17.60;99.90
21031;DHT22;61072;47.808;7.636;2022-10-16T08:28:09;17.70;99.90
21031;DHT22;61072;47.808;7.636;2022-10-16T08:30:37;17.80;99.90
21031;DHT22;61072;47.808;7.636;2022-10-16T08:33:04;18.00;99.90
21031;DHT22;61072;47.808;7.636;2022-10-16T08:35:31;18.10;99.90
21031;DHT22;61072;47.808;7.636;2022-10-16T08:37:57;18.30;99.90
21031;DHT22;61072;47.808;7.636;2022-10-16T08:40:27;18.40;99.90
21031;DHT22;61072;47.808;7.636;2022-10-16T08:46:07;18.70;99.90
21031;DHT22;61072;47.808;7.636;2022-10-16T08:48:52;18.80;99.90
21031;DHT22;61072;47.808;7.636;2022-10-16T08:51:24;19.00;99.90
21031;DHT22;61072;47.808;7.636;2022-10-16T08:54:02;19.10;99.90
21031;DHT22;61072;47.808;7.636;2022-10-16T08:56:29;19.20;99.90
21031;DHT22;61072;47.808;7.636;2022-10-16T08:58:58;19.20;99.90
21031;DHT22;61072;47.808;7.636;2022-10-16T09:01:41;19.40;99.90
21031;DHT22;61072;47.808;7.636;2022-10-16T09:07:35;19.70;99.90
21031;DHT22;61072;47.808;7.636;2022-10-16T09:12:56;19.90;99.90
21031;DHT22;61072;47.808;7.636;2022-10-16T09:15:43;20.00;99.90
21031;DHT22;61072;47.808;7.636;2022-10-16T09:18:16;20.10;99.90
21031;DHT22;61072;47.808;7.636;2022-10-16T09:23:29;20.20;99.90
21031;DHT22;61072;47.808;7.636;2022-10-16T09:25:59;20.20;99.90
21031;DHT22;61072;47.808;7.636;2022-10-16T09:28:29;20.30;99.90
21031;DHT22;61072;47.808;7.636;2022-10-16T09:30:59;20.30;99.90
21031;DHT22;61072;47.808;7.636;2022-10-16T09:33:33;20.30;99.90
21031;DHT22;61072;47.808;7.636;2022-10-16T09:36:03;20.40;99.90
21031;DHT22;61072;47.808;7.636;2022-10-16T09:38:32;20.20;99.90
21031;DHT22;61072;47.808;7.636;2022-10-16T09:41:22;20.20;99.90
21031;DHT22;61072;47.808;7.636;2022-10-16T09:43:55;20.20;99.90
21031;DHT22;61072;47.808;7.636;2022-10-16T09:46:30;20.20;99.90
21031;DHT22;61072;47.808;7.636;2022-10-16T09:49:05;20.20;99.90
21031;DHT22;61072;47.808;7.636;2022-10-16T09:51:37;20.20;99.90
21031;DHT22;61072;47.808;7.636;2022-10-16T09:56:50;20.20;99.90
21031;DHT22;61072;47.808;7.636;2022-10-16T09:59:27;20.20;99.90
21031;DHT22;61072;47.808;7.636;2022-10-16T10:02:01;20.20;99.90
21031;DHT22;61072;47.808;7.636;2022-10-16T10:04:56;20.20;99.90
21031;DHT22;61072;47.808;7.636;2022-10-16T10:07:30;20.20;99.90
21031;DHT22;61072;47.808;7.636;2022-10-16T10:10:02;20.30;99.90
21031;DHT22;61072;47.808;7.636;2022-10-16T10:12:35;20.30;99.90
21031;DHT22;61072;47.808;7.636;2022-10-16T10:15:12;20.30;99.90
21031;DHT22;61072;47.808;7.636;2022-10-16T10:17:51;20.40;99.90
21031;DHT22;61072;47.808;7.636;2022-10-16T10:22:57;20.50;99.90
21031;DHT22;61072;47.808;7.636;2022-10-16T10:28:32;20.70;99.90
21031;DHT22;61072;47.808;7.636;2022-10-16T10:32:04;20.80;99.90
21031;DHT22;61072;47.808;7.636;2022-10-16T10:46:12;21.00;99.90
21031;DHT22;61072;47.808;7.636;2022-10-16T10:57:50;21.10;99.90
21031;DHT22;61072;47.808;7.636;2022-10-16T11:06:24;21.30;99.90
21031;DHT22;61072;47.808;7.636;2022-10-16T11:09:17;21.30;99.90
21031;DHT22;61072;47.808;7.636;2022-10-16T11:14:34;21.30;99.90
21031;DHT22;61072;47.808;7.636;2022-10-16T11:17:39;21.30;99.90
21031;DHT22;61072;47.808;7.636;2022-10-16T11:20:20;21.40;99.90
21031;DHT22;61072;47.808;7.636;2022-10-16T11:23:18;21.40;99.90
21031;DHT22;61072;47.808;7.636;2022-10-16T11:25:48;21.50;99.90
21031;DHT22;61072;47.808;7.636;2022-10-16T11:28:25;21.40;99.90
21031;DHT22;61072;47.808;7.636;2022-10-16T11:31:13;21.50;99.90
21031;DHT22;61072;47.808;7.636;2022-10-16T11:33:47;21.50;99.90
21031;DHT22;61072;47.808;7.636;2022-10-16T11:36:35;21.50;99.90
21031;DHT22;61072;47.808;7.636;2022-10-16T11:41:44;21.50;99.90
21031;DHT22;61072;47.808;7.636;2022-10-16T11:44:46;21.40;99.90
21031;DHT22;61072;47.808;7.636;2022-10-16T11:47:45;21.50;99.90
21031;DHT22;61072;47.808;7.636;2022-10-16T11:50:45;21.40;99.90
21031;DHT22;61072;47.808;7.636;2022-10-16T11:53:46;21.30;99.90
21031;DHT22;61072;47.808;7.636;2022-10-16T11:56:17;21.30;99.90
21031;DHT22;61072;47.808;7.636;2022-10-16T12:02:30;21.30;99.90
21031;DHT22;61072;47.808;7.636;2022-10-16T12:04:53;21.30;99.90
21031;DHT22;61072;47.808;7.636;2022-10-16T12:07:31;21.30;99.90
21031;DHT22;61072;47.808;7.636;2022-10-16T12:10:24;21.40;99.90
21031;DHT22;61072;47.808;7.636;2022-10-16T12:12:53;21.50;99.90
21031;DHT22;61072;47.808;7.636;2022-10-16T12:15:28;21.50;99.90
21031;DHT22;61072;47.808;7.636;2022-10-16T12:18:25;21.60;99.90
21031;DHT22;61072;47.808;7.636;2022-10-16T12:20:56;21.80;99.90
21031;DHT22;61072;47.808;7.636;2022-10-16T12:23:25;21.80;99.90
21031;DHT22;61072;47.808;7.636;2022-10-16T12:25:59;21.90;99.90
21031;DHT22;61072;47.808;7.636;2022-10-16T12:28:30;21.90;99.90
21031;DHT22;61072;47.808;7.636;2022-10-16T12:31:03;22.00;99.90
21031;DHT22;61072;47.808;7.636;2022-10-16T12:33:40;22.10;99.90
21031;DHT22;61072;47.808;7.636;2022-10-16T12:36:16;22.10;99.90
21031;DHT22;61072;47.808;7.636;2022-10-16T12:38:53;22.10;99.90
21031;DHT22;61072;47.808;7.636;2022-10-16T12:41:38;22.10;99.90
21031;DHT22;61072;47.808;7.636;2022-10-16T12:44:24;22.10;99.90
21031;DHT22;61072;47.808;7.636;2022-10-16T12:46:52;22.00;99.90
21031;DHT22;61072;47.808;7.636;2022-10-16T12:49:36;22.00;99.90
21031;DHT22;61072;47.808;7.636;2022-10-16T12:52:04;22.00;99.90
21031;DHT22;61072;47.808;7.636;2022-10-16T12:54:36;22.00;99.90
21031;DHT22;61072;47.808;7.636;2022-10-16T13:11:26;21.90;99.90
21031;DHT22;61072;47.808;7.636;2022-10-16T13:19:49;21.80;99.90
21031;DHT22;61072;47.808;7.636;2022-10-16T13:25:22;21.80;99.90
21031;DHT22;61072;47.808;7.636;2022-10-16T13:27:55;21.80;99.90
21031;DHT22;61072;47.808;7.636;2022-10-16T13:30:28;21.70;99.90
21031;DHT22;61072;47.808;7.636;2022-10-16T13:33:35;21.80;99.90
21031;DHT22;61072;47.808;7.636;2022-10-16T13:36:04;21.80;99.90
21031;DHT22;61072;47.808;7.636;2022-10-16T13:38:33;21.80;99.90
21031;DHT22;61072;47.808;7.636;2022-10-16T13:41:05;21.80;99.90
21031;DHT22;61072;47.808;7.636;2022-10-16T13:48:33;21.70;99.90
21031;DHT22;61072;47.808;7.636;2022-10-16T13:51:14;21.70;99.90
21031;DHT22;61072;47.808;7.636;2022-10-16T13:53:42;21.70;99.90
21031;DHT22;61072;47.808;7.636;2022-10-16T13:56:15;21.70;99.90
21031;DHT22;61072;47.808;7.636;2022-10-16T13:58:42;21.70;99.90
21031;DHT22;61072;47.808;7.636;2022-10-16T14:01:22;21.80;99.90
21031;DHT22;61072;47.808;7.636;2022-10-16T14:04:02;21.90;99.90
21031;DHT22;61072;47.808;7.636;2022-10-16T14:06:30;21.90;99.90
21031;DHT22;61072;47.808;7.636;2022-10-16T14:09:26;21.90;99.90
21031;DHT22;61072;47.808;7.636;2022-10-16T14:12:00;21.90;99.90
21031;DHT22;61072;47.808;7.636;2022-10-16T14:14:34;22.00;99.90
21031;DHT22;61072;47.808;7.636;2022-10-16T14:17:03;22.00;99.90
21031;DHT22;61072;47.808;7.636;2022-10-16T14:19:30;21.90;99.90
21031;DHT22;61072;47.808;7.636;2022-10-16T14:21:58;22.00;99.90
21031;DHT22;61072;47.808;7.636;2022-10-16T14:24:31;21.90;99.90
21031;DHT22;61072;47.808;7.636;2022-10-16T14:27:00;21.90;99.90
21031;DHT22;61072;47.808;7.636;2022-10-16T14:29:29;22.00;99.90
21031;DHT22;61072;47.808;7.636;2022-10-16T14:32:00;22.10;99.90
21031;DHT22;61072;47.808;7.636;2022-10-16T14:34:38;22.10;99.90
21031;DHT22;61072;47.808;7.636;2022-10-16T14:37:22;22.00;99.90
21031;DHT22;61072;47.808;7.636;2022-10-16T14:39:54;22.00;99.90
21031;DHT22;61072;47.808;7.636;2022-10-16T14:42:23;22.00;99.90
21031;DHT22;61072;47.808;7.636;2022-10-16T14:44:52;21.90;99.90
21031;DHT22;61072;47.808;7.636;2022-10-16T14:47:22;22.00;99.90
21031;DHT22;61072;47.808;7.636;2022-10-16T14:49:53;21.90;99.90
21031;DHT22;61072;47.808;7.636;2022-10-16T14:52:25;21.90;99.90
21031;DHT22;61072;47.808;7.636;2022-10-16T14:54:52;22.00;99.90
21031;DHT22;61072;47.808;7.636;2022-10-16T14:57:25;21.90;99.90
21031;DHT22;61072;47.808;7.636;2022-10-16T14:59:54;21.90;99.90
21031;DHT22;61072;47.808;7.636;2022-10-16T15:02:27;21.90;99.90
21031;DHT22;61072;47.808;7.636;2022-10-16T15:04:55;21.90;99.90
21031;DHT22;61072;47.808;7.636;2022-10-16T15:07:23;21.80;99.90
21031;DHT22;61072;47.808;7.636;2022-10-16T15:09:50;21.80;99.90
21031;DHT22;61072;47.808;7.636;2022-10-16T15:12:17;21.80;99.90
21031;DHT22;61072;47.808;7.636;2022-10-16T15:14:44;21.80;99.90
21031;DHT22;61072;47.808;7.636;2022-10-16T15:17:11;21.80;99.90
21031;DHT22;61072;47.808;7.636;2022-10-16T15:19:38;21.80;99.90
21031;DHT22;61072;47.808;7.636;2022-10-16T15:22:04;21.80;99.90
21031;DHT22;61072;47.808;7.636;2022-10-16T15:24:31;21.80;99.90
21031;DHT22;61072;47.808;7.636;2022-10-16T15:26:58;21.80;99.90
21031;DHT22;61072;47.808;7.636;2022-10-16T15:29:25;21.80;99.90
21031;DHT22;61072;47.808;7.636;2022-10-16T15:31:51;21.80;99.90
21031;DHT22;61072;47.808;7.636;2022-10-16T15:34:18;21.70;99.90
21031;DHT22;61072;47.808;7.636;2022-10-16T15:36:46;21.70;99.90
21031;DHT22;61072;47.808;7.636;2022-10-16T15:39:14;21.70;99.90
21031;DHT22;61072;47.808;7.636;2022-10-16T15:41:42;21.60;99.90
21031;DHT22;61072;47.808;7.636;2022-10-16T15:44:09;21.60;99.90
21031;DHT22;61072;47.808;7.636;2022-10-16T15:46:36;21.50;99.90
21031;DHT22;61072;47.808;7.636;2022-10-16T15:49:03;21.50;99.90
21031;DHT22;61072;47.808;7.636;2022-10-16T15:51:30;21.40;99.90
21031;DHT22;61072;47.808;7.636;2022-10-16T15:53:59;21.30;99.90
21031;DHT22;61072;47.808;7.636;2022-10-16T15:56:28;21.30;99.90
21031;DHT22;61072;47.808;7.636;2022-10-16T15:58:56;21.20;99.90
21031;DHT22;61072;47.808;7.636;2022-10-16T16:01:24;21.10;99.90
21031;DHT22;61072;47.808;7.636;2022-10-16T16:03:55;21.00;99.90
21031;DHT22;61072;47.808;7.636;2022-10-16T16:06:22;20.90;99.90
21031;DHT22;61072;47.808;7.636;2022-10-16T16:08:51;20.90;99.90
21031;DHT22;61072;47.808;7.636;2022-10-16T16:11:19;20.80;99.90
21031;DHT22;61072;47.808;7.636;2022-10-16T16:13:46;20.70;99.90
21031;DHT22;61072;47.808;7.636;2022-10-16T16:16:14;20.70;99.90
21031;DHT22;61072;47.808;7.636;2022-10-16T16:18:42;20.60;99.90
21031;DHT22;61072;47.808;7.636;2022-10-16T16:21:12;20.50;99.90
21031;DHT22;61072;47.808;7.636;2022-10-16T16:23:39;20.40;99.90
21031;DHT22;61072;47.808;7.636;2022-10-16T16:26:10;20.30;99.90
21031;DHT22;61072;47.808;7.636;2022-10-16T16:28:38;20.30;99.90
21031;DHT22;61072;47.808;7.636;2022-10-16T16:31:06;20.20;99.90
21031;DHT22;61072;47.808;7.636;2022-10-16T16:33:33;20.10;99.90
21031;DHT22;61072;47.808;7.636;2022-10-16T16:36:03;20.00;99.90
21031;DHT22;61072;47.808;7.636;2022-10-16T16:38:32;19.90;99.90
21031;DHT22;61072;47.808;7.636;2022-10-16T16:40:59;19.90;99.90
21031;DHT22;61072;47.808;7.636;2022-10-16T16:43:27;19.80;99.90
21031;DHT22;61072;47.808;7.636;2022-10-16T16:45:54;19.70;99.90
21031;DHT22;61072;47.808;7.636;2022-10-16T16:48:22;19.60;99.90
21031;DHT22;61072;47.808;7.636;2022-10-16T16:50:48;19.60;99.90
21031;DHT22;61072;47.808;7.636;2022-10-16T16:53:15;19.50;99.90
21031;DHT22;61072;47.808;7.636;2022-10-16T16:55:42;19.50;99.90
21031;DHT22;61072;47.808;7.636;2022-10-16T16:58:09;19.40;99.90
21031;DHT22;61072;47.808;7.636;2022-10-16T17:00:35;19.30;99.90
21031;DHT22;61072;47.808;7.636;2022-10-16T17:03:02;19.30;99.90
21031;DHT22;61072;47.808;7.636;2022-10-16T17:05:29;19.30;99.90
21031;DHT22;61072;47.808;7.636;2022-10-16T17:07:56;19.20;99.90
21031;DHT22;61072;47.808;7.636;2022-10-16T17:10:22;19.20;99.90
21031;DHT22;61072;47.808;7.636;2022-10-16T17:12:49;19.10;99.90
21031;DHT22;61072;47.808;7.636;2022-10-16T17:15:16;19.10;99.90
21031;DHT22;61072;47.808;7.636;2022-10-16T17:17:43;19.10;99.90
21031;DHT22;61072;47.808;7.636;2022-10-16T17:20:10;19.00;99.90
21031;DHT22;61072;47.808;7.636;2022-10-16T17:22:36;19.00;99.90